createdAt,value
2022-11-26T00:01:15.021Z,297.43
2022-11-26T00:03:42.150Z,232.43
2022-11-26T00:06:30.374Z,279.93
2022-11-26T00:08:56.942Z,208.90
2022-11-26T00:11:23.387Z,366.00
2022-11-26T00:13:49.920Z,223.40
2022-11-26T00:16:16.543Z,364.93
2022-11-26T00:18:43.317Z,256.47
2022-11-26T00:21:18.998Z,233.70
2022-11-26T00:23:45.679Z,284.57
2022-11-26T00:26:16.527Z,490.03
2022-11-26T00:28:50.064Z,265.97
2022-11-26T00:31:16.641Z,300.87
2022-11-26T00:33:43.313Z,332.47
2022-11-26T00:36:17.505Z,260.67
2022-11-26T00:38:45.394Z,299.97
2022-11-26T00:41:16.044Z,349.90
2022-11-26T00:43:42.535Z,229.00
2022-11-26T00:46:13.503Z,222.00
2022-11-26T00:48:40.543Z,319.70
2022-11-26T00:51:12.084Z,280.07
2022-11-26T00:53:38.638Z,354.67
2022-11-26T00:56:05.371Z,276.93
2022-11-26T00:58:31.947Z,231.43
2022-11-26T01:00:59.718Z,239.00
2022-11-26T01:03:26.918Z,211.83
2022-11-26T01:05:55.575Z,223.70
2022-11-26T01:08:31.961Z,190.33
2022-11-26T01:11:00.015Z,196.40
2022-11-26T01:13:27.192Z,179.13
2022-11-26T01:15:55.821Z,195.37
2022-11-26T01:18:22.644Z,204.63
2022-11-26T01:20:49.708Z,232.87
2022-11-26T01:23:18.294Z,243.67
2022-11-26T01:25:45.388Z,199.43
2022-11-26T01:28:13.888Z,278.70
2022-11-26T01:30:40.954Z,224.47
2022-11-26T01:33:07.722Z,279.87
2022-11-26T01:35:35.651Z,299.13
2022-11-26T01:38:02.501Z,251.30
2022-11-26T01:40:28.839Z,231.97
2022-11-26T01:43:36.864Z,258.87
2022-11-26T01:46:03.572Z,389.63
2022-11-26T01:48:33.930Z,481.47
2022-11-26T01:51:05.523Z,207.20
2022-11-26T01:53:52.787Z,241.23
2022-11-26T01:56:32.636Z,286.40
2022-11-26T01:59:25.135Z,407.77
2022-11-26T02:01:53.199Z,336.33
2022-11-26T02:04:32.136Z,392.67
2022-11-26T02:06:59.639Z,402.53
2022-11-26T02:09:27.975Z,216.63
2022-11-26T02:11:54.609Z,193.13
2022-11-26T02:14:24.135Z,296.57
2022-11-26T02:17:10.498Z,355.83
2022-11-26T02:20:01.506Z,199.83
2022-11-26T02:22:51.795Z,241.00
2022-11-26T02:25:54.241Z,512.10
2022-11-26T02:28:32.329Z,299.87
2022-11-26T02:31:07.395Z,192.60
2022-11-26T02:33:42.775Z,202.13
2022-11-26T02:36:17.201Z,420.53
2022-11-26T02:38:44.428Z,198.43
2022-11-26T02:41:10.880Z,296.97
2022-11-26T02:43:38.596Z,370.57
2022-11-26T02:46:18.228Z,206.83
2022-11-26T02:48:47.950Z,625.43
2022-11-26T02:51:23.296Z,218.20
2022-11-26T02:53:51.272Z,193.23
2022-11-26T02:56:23.889Z,217.40
2022-11-26T02:58:51.412Z,224.00
2022-11-26T03:01:29.708Z,191.17
2022-11-26T03:03:59.383Z,239.60
2022-11-26T03:06:28.022Z,232.23
2022-11-26T03:08:55.039Z,176.00
2022-11-26T03:11:22.110Z,251.73
2022-11-26T03:13:49.480Z,197.93
2022-11-26T03:16:16.751Z,373.53
2022-11-26T03:18:43.348Z,222.10
2022-11-26T03:21:10.059Z,333.23
2022-11-26T03:23:37.288Z,184.50
2022-11-26T03:26:03.900Z,352.53
2022-11-26T03:28:30.484Z,215.83
2022-11-26T03:30:57.140Z,170.87
2022-11-26T03:33:23.805Z,231.93
2022-11-26T03:35:50.268Z,230.83
2022-11-26T03:38:17.332Z,158.80
2022-11-26T03:40:44.020Z,197.67
2022-11-26T03:43:10.574Z,159.80
2022-11-26T03:45:37.227Z,197.60
2022-11-26T03:48:04.080Z,165.50
2022-11-26T03:50:30.571Z,265.20
2022-11-26T03:52:57.155Z,211.30
2022-11-26T03:55:23.587Z,166.03
2022-11-26T03:57:50.236Z,172.67
2022-11-26T04:00:17.698Z,307.03
2022-11-26T04:02:44.154Z,181.73
2022-11-26T04:05:10.848Z,142.10
2022-11-26T04:07:37.544Z,154.60
2022-11-26T04:10:04.950Z,152.13
2022-11-26T04:12:31.458Z,156.20
2022-11-26T04:14:58.027Z,168.10
2022-11-26T04:17:24.495Z,166.20
2022-11-26T04:19:52.101Z,159.00
2022-11-26T04:22:18.696Z,153.43
2022-11-26T04:24:45.189Z,178.23
2022-11-26T04:27:11.586Z,175.10
2022-11-26T04:29:38.256Z,185.23
2022-11-26T04:32:05.118Z,166.60
2022-11-26T04:34:31.865Z,157.77
2022-11-26T04:36:58.418Z,145.37
2022-11-26T04:39:24.852Z,135.57
2022-11-26T04:41:51.532Z,140.60
2022-11-26T04:44:18.305Z,154.47
2022-11-26T04:46:44.786Z,164.23
2022-11-26T04:49:11.282Z,135.70
2022-11-26T04:51:38.232Z,149.23
2022-11-26T04:54:08.682Z,148.13
2022-11-26T04:56:39.321Z,144.00
2022-11-26T04:59:05.872Z,125.60
2022-11-26T05:01:32.457Z,119.23
2022-11-26T05:03:59.131Z,123.80
2022-11-26T05:06:25.594Z,105.07
2022-11-26T05:08:52.033Z,138.97
2022-11-26T05:11:18.826Z,134.53
2022-11-26T05:13:45.305Z,158.87
2022-11-26T05:16:11.943Z,154.93
2022-11-26T05:18:38.726Z,139.57
2022-11-26T05:21:06.259Z,144.70
2022-11-26T05:23:32.758Z,141.10
2022-11-26T05:25:59.521Z,144.67
2022-11-26T05:28:25.982Z,151.33
2022-11-26T05:30:59.936Z,143.70
2022-11-26T05:33:27.143Z,150.67
2022-11-26T05:35:53.668Z,158.90
2022-11-26T05:38:20.109Z,155.37
2022-11-26T05:40:46.765Z,150.63
2022-11-26T05:43:13.202Z,113.07
2022-11-26T05:45:39.673Z,109.70
2022-11-26T05:48:06.364Z,123.40
2022-11-26T05:50:33.722Z,108.77
2022-11-26T05:53:00.168Z,117.80
2022-11-26T05:55:26.783Z,108.20
2022-11-26T05:57:53.247Z,101.63
2022-11-26T06:00:19.909Z,105.73
2022-11-26T06:02:46.718Z,94.53
2022-11-26T06:05:13.394Z,110.93
2022-11-26T06:07:44.619Z,101.73
2022-11-26T06:10:12.766Z,115.03
2022-11-26T06:12:39.242Z,105.27
2022-11-26T06:15:06.339Z,110.47
2022-11-26T06:17:32.840Z,106.43
2022-11-26T06:19:59.795Z,114.83
2022-11-26T06:22:26.215Z,100.23
2022-11-26T06:24:52.886Z,100.87
2022-11-26T06:27:19.356Z,110.50
2022-11-26T06:29:45.781Z,94.13
2022-11-26T06:32:12.401Z,105.20
2022-11-26T06:34:39.111Z,95.40
2022-11-26T06:37:06.228Z,98.00
2022-11-26T06:39:32.853Z,92.57
2022-11-26T06:41:59.313Z,86.07
2022-11-26T06:44:25.809Z,84.53
2022-11-26T06:46:52.384Z,90.63
2022-11-26T06:49:18.823Z,89.20
2022-11-26T06:51:45.261Z,87.43
2022-11-26T06:54:11.954Z,89.00
2022-11-26T06:56:39.425Z,87.07
2022-11-26T06:59:08.727Z,82.20
2022-11-26T07:01:35.866Z,99.73
2022-11-26T07:04:02.588Z,105.77
2022-11-26T07:06:31.121Z,109.17
2022-11-26T07:08:59.316Z,102.27
2022-11-26T07:11:28.871Z,94.87
2022-11-26T07:13:55.408Z,98.90
2022-11-26T07:16:22.634Z,89.93
2022-11-26T07:18:50.624Z,97.13
2022-11-26T07:21:17.814Z,89.27
2022-11-26T07:23:44.546Z,88.70
2022-11-26T07:26:12.539Z,98.93
2022-11-26T07:28:40.776Z,84.60
2022-11-26T07:31:16.479Z,87.10
2022-11-26T07:33:44.726Z,88.87
2022-11-26T07:36:16.983Z,74.73
2022-11-26T07:38:43.481Z,77.70
2022-11-26T07:41:13.565Z,89.63
2022-11-26T07:43:41.913Z,84.37
2022-11-26T07:46:10.991Z,77.80
2022-11-26T07:48:39.925Z,81.40
2022-11-26T07:51:08.026Z,77.50
2022-11-26T07:53:35.945Z,81.23
2022-11-26T07:56:06.333Z,91.10
2022-11-26T07:58:33.668Z,81.80
2022-11-26T08:01:32.473Z,82.03
2022-11-26T08:04:00.432Z,84.13
2022-11-26T08:06:28.947Z,82.40
2022-11-26T08:08:55.508Z,78.50
2022-11-26T08:11:24.853Z,85.17
2022-11-26T08:13:56.233Z,74.03
2022-11-26T08:16:22.914Z,80.93
2022-11-26T08:19:09.291Z,89.97
2022-11-26T08:21:38.522Z,92.20
2022-11-26T08:24:08.695Z,86.27
2022-11-26T08:26:39.828Z,80.83
2022-11-26T08:29:18.333Z,77.47
2022-11-26T08:31:46.625Z,87.23
2022-11-26T08:34:27.454Z,79.80
2022-11-26T08:36:58.488Z,77.77
2022-11-26T08:39:25.316Z,75.93
2022-11-26T08:41:52.798Z,73.57
2022-11-26T08:44:19.770Z,70.77
2022-11-26T08:46:46.256Z,79.83
2022-11-26T08:49:13.610Z,74.10
2022-11-26T08:51:40.706Z,72.10
2022-11-26T08:54:07.477Z,73.63
2022-11-26T08:56:34.711Z,77.73
2022-11-26T08:59:01.407Z,71.20
2022-11-26T09:01:29.773Z,68.53
2022-11-26T09:03:58.832Z,68.13
2022-11-26T09:06:27.585Z,74.70
2022-11-26T09:09:12.622Z,70.93
2022-11-26T09:11:49.389Z,74.20
2022-11-26T09:14:18.834Z,64.73
2022-11-26T09:16:45.493Z,73.43
2022-11-26T09:19:13.727Z,75.13
2022-11-26T09:21:40.280Z,77.90
2022-11-26T09:24:07.057Z,74.80
2022-11-26T09:26:35.055Z,69.07
2022-11-26T09:29:01.820Z,75.20
2022-11-26T09:31:28.540Z,82.73
2022-11-26T09:33:56.900Z,81.10
2022-11-26T09:36:23.720Z,73.10
2022-11-26T09:38:54.019Z,71.30
2022-11-26T09:41:38.827Z,76.03
2022-11-26T09:44:22.475Z,76.87
2022-11-26T09:47:22.619Z,74.67
2022-11-26T09:50:13.322Z,74.77
2022-11-26T09:53:04.643Z,78.30
2022-11-26T09:55:33.949Z,67.37
2022-11-26T09:58:38.898Z,66.87
2022-11-26T10:01:06.753Z,70.60
2022-11-26T10:03:36.094Z,64.83
2022-11-26T10:06:13.717Z,68.37
2022-11-26T10:09:08.059Z,65.03
2022-11-26T10:12:10.937Z,58.10
2022-11-26T10:15:25.516Z,57.73
2022-11-26T10:17:54.770Z,59.17
2022-11-26T10:20:52.217Z,63.03
2022-11-26T10:23:32.707Z,61.40
2022-11-26T10:26:10.370Z,65.10
2022-11-26T10:28:51.248Z,62.60
2022-11-26T10:31:24.871Z,66.20
2022-11-26T10:33:55.900Z,62.73
2022-11-26T10:36:25.545Z,58.60
2022-11-26T10:38:53.290Z,61.70
2022-11-26T10:41:20.790Z,57.80
2022-11-26T10:43:47.451Z,63.40
2022-11-26T10:46:37.629Z,63.80
2022-11-26T10:49:23.570Z,67.83
2022-11-26T10:51:51.488Z,62.53
2022-11-26T10:54:24.726Z,62.43
2022-11-26T10:56:55.583Z,55.87
2022-11-26T10:59:28.961Z,61.50
2022-11-26T11:02:01.958Z,59.23
2022-11-26T11:04:32.593Z,67.73
2022-11-26T11:06:59.085Z,68.07
2022-11-26T11:09:29.868Z,60.03
2022-11-26T11:12:25.677Z,62.60
2022-11-26T11:14:52.326Z,51.47
2022-11-26T11:17:25.542Z,63.60
2022-11-26T11:19:52.179Z,61.23
2022-11-26T11:22:22.125Z,61.60
2022-11-26T11:24:49.129Z,58.53
2022-11-26T11:27:25.190Z,56.93
2022-11-26T11:29:52.375Z,62.23
2022-11-26T11:32:48.359Z,68.27
2022-11-26T11:35:17.812Z,70.97
2022-11-26T11:37:49.600Z,73.53
2022-11-26T11:40:20.186Z,75.90
2022-11-26T11:42:51.814Z,60.97
2022-11-26T11:45:23.445Z,65.43
2022-11-26T11:47:53.297Z,67.33
2022-11-26T11:50:30.366Z,69.53
2022-11-26T11:53:07.875Z,69.53
2022-11-26T11:55:49.362Z,67.67
2022-11-26T11:58:50.573Z,67.20
2022-11-26T12:01:33.829Z,66.93
2022-11-26T12:04:25.160Z,69.20
2022-11-26T12:06:58.924Z,69.60
2022-11-26T12:09:35.053Z,68.07
2022-11-26T12:12:21.429Z,74.80
2022-11-26T12:14:52.529Z,65.73
2022-11-26T12:17:45.928Z,71.20
2022-11-26T12:20:15.262Z,64.80
2022-11-26T12:23:16.016Z,66.27
2022-11-26T12:25:47.855Z,70.00
2022-11-26T12:28:18.291Z,62.87
2022-11-26T12:30:51.850Z,73.90
2022-11-26T12:33:25.100Z,66.37
2022-11-26T12:35:56.915Z,65.63
2022-11-26T12:38:30.254Z,68.13
2022-11-26T12:41:05.044Z,71.80
2022-11-26T12:43:52.644Z,68.97
2022-11-26T12:46:36.044Z,67.73
2022-11-26T12:49:27.047Z,62.90
2022-11-26T12:52:30.774Z,67.53
2022-11-26T12:55:23.554Z,70.17
2022-11-26T12:58:01.564Z,64.37
2022-11-26T13:00:36.371Z,59.53
2022-11-26T13:03:05.487Z,63.13
2022-11-26T13:05:51.818Z,59.43
2022-11-26T13:08:33.968Z,72.73
2022-11-26T13:11:15.501Z,67.07
2022-11-26T13:14:02.223Z,69.03
2022-11-26T13:16:43.766Z,66.47
2022-11-26T13:19:19.006Z,69.83
2022-11-26T13:22:23.151Z,77.43
2022-11-26T13:25:25.554Z,70.83
2022-11-26T13:28:21.986Z,71.47
2022-11-26T13:31:15.592Z,68.80
2022-11-26T13:34:03.487Z,67.63
2022-11-26T13:36:54.494Z,67.20
2022-11-26T13:39:30.028Z,80.47
2022-11-26T13:42:38.346Z,78.20
2022-11-26T13:45:17.768Z,66.57
2022-11-26T13:47:51.804Z,74.53
2022-11-26T13:50:26.429Z,73.40
2022-11-26T13:53:25.040Z,76.20
2022-11-26T13:55:58.202Z,61.77
2022-11-26T13:58:37.949Z,63.87
2022-11-26T14:01:33.045Z,62.17
2022-11-26T14:04:00.505Z,70.70
2022-11-26T14:06:28.222Z,74.90
2022-11-26T14:08:55.510Z,67.57
2022-11-26T14:11:54.458Z,63.63
2022-11-26T14:14:26.745Z,73.47
2022-11-26T14:17:02.532Z,76.00
2022-11-26T14:19:41.266Z,76.50
2022-11-26T14:22:20.290Z,78.53
2022-11-26T14:24:50.265Z,74.73
2022-11-26T14:27:18.743Z,68.20
2022-11-26T14:29:46.863Z,67.43
2022-11-26T14:32:15.504Z,78.23
2022-11-26T14:34:46.133Z,85.10
2022-11-26T14:37:18.373Z,72.57
2022-11-26T14:39:45.240Z,80.03
2022-11-26T14:42:16.353Z,79.60
2022-11-26T14:44:43.390Z,76.10
2022-11-26T14:47:20.827Z,75.23
2022-11-26T14:49:54.346Z,71.80
2022-11-26T14:52:23.987Z,79.90
2022-11-26T14:54:52.826Z,74.33
2022-11-26T14:57:40.713Z,68.60
2022-11-26T15:00:23.043Z,73.73
2022-11-26T15:02:51.422Z,73.30
2022-11-26T15:05:32.259Z,79.67
2022-11-26T15:08:05.017Z,77.73
2022-11-26T15:11:10.727Z,76.47
2022-11-26T15:13:48.795Z,74.63
2022-11-26T15:16:42.268Z,79.70
2022-11-26T15:19:14.851Z,76.30
2022-11-26T15:21:41.429Z,72.53
2022-11-26T15:24:09.062Z,75.60
2022-11-26T15:26:36.660Z,81.17
2022-11-26T15:29:26.669Z,75.20
2022-11-26T15:31:53.296Z,73.30
2022-11-26T15:34:19.841Z,74.37
2022-11-26T15:36:46.321Z,74.93
2022-11-26T15:39:25.494Z,80.40
2022-11-26T15:41:52.820Z,77.83
2022-11-26T15:44:22.502Z,79.53
2022-11-26T15:46:50.986Z,77.83
2022-11-26T15:49:22.991Z,74.43
2022-11-26T15:52:03.919Z,83.43
2022-11-26T15:54:49.505Z,79.60
2022-11-26T15:57:26.193Z,78.10
2022-11-26T15:59:58.671Z,80.17
2022-11-26T16:02:27.004Z,73.80
2022-11-26T16:04:55.479Z,66.90
2022-11-26T16:07:23.079Z,77.07
2022-11-26T16:09:51.337Z,73.47
2022-11-26T16:13:05.730Z,71.77
2022-11-26T16:15:32.308Z,73.87
2022-11-26T16:17:58.886Z,69.60
2022-11-26T16:20:28.366Z,69.17
2022-11-26T16:22:58.012Z,73.47
2022-11-26T16:25:31.475Z,72.17
2022-11-26T16:28:14.410Z,77.60
2022-11-26T16:30:43.731Z,76.50
2022-11-26T16:33:10.514Z,75.50
2022-11-26T16:35:46.222Z,67.90
2022-11-26T16:38:21.575Z,71.20
2022-11-26T16:40:48.514Z,73.63
2022-11-26T16:43:15.068Z,75.97
2022-11-26T16:45:42.004Z,67.07
2022-11-26T16:48:22.613Z,69.00
2022-11-26T16:50:49.385Z,68.07
2022-11-26T16:53:15.909Z,68.17
2022-11-26T16:55:42.398Z,69.93
2022-11-26T16:58:25.227Z,64.43
2022-11-26T17:00:51.691Z,73.00
2022-11-26T17:03:18.612Z,59.37
2022-11-26T17:05:45.298Z,63.73
2022-11-26T17:08:12.218Z,59.03
2022-11-26T17:10:39.037Z,64.27
2022-11-26T17:13:05.595Z,66.50
2022-11-26T17:15:32.112Z,65.60
2022-11-26T17:18:04.172Z,65.03
2022-11-26T17:20:31.129Z,67.63
2022-11-26T17:22:57.576Z,72.40
2022-11-26T17:25:24.158Z,64.63
2022-11-26T17:27:50.721Z,66.77
2022-11-26T17:30:22.391Z,64.20
2022-11-26T17:32:49.337Z,71.63
2022-11-26T17:35:16.082Z,64.20
2022-11-26T17:37:43.329Z,57.83
2022-11-26T17:40:19.066Z,65.57
2022-11-26T17:42:45.750Z,64.17
2022-11-26T17:45:12.673Z,61.57
2022-11-26T17:47:39.693Z,62.47
2022-11-26T17:50:21.942Z,64.17
2022-11-26T17:52:49.839Z,60.40
2022-11-26T17:55:17.000Z,57.50
2022-11-26T17:57:43.717Z,62.27
2022-11-26T18:00:20.140Z,72.70
2022-11-26T18:02:46.625Z,65.97
2022-11-26T18:05:13.444Z,60.73
2022-11-26T18:07:40.310Z,59.90
2022-11-26T18:10:10.195Z,61.80
2022-11-26T18:12:36.763Z,65.57
2022-11-26T18:15:04.488Z,61.40
2022-11-26T18:17:31.185Z,58.20
2022-11-26T18:19:57.764Z,59.87
2022-11-26T18:22:25.895Z,61.97
2022-11-26T18:24:57.166Z,57.63
2022-11-26T18:27:26.755Z,65.80
2022-11-26T18:29:53.521Z,60.10
2022-11-26T18:32:20.243Z,66.80
2022-11-26T18:34:49.386Z,68.03
2022-11-26T18:37:15.798Z,64.33
2022-11-26T18:39:42.359Z,75.23
2022-11-26T18:42:36.060Z,71.30
2022-11-26T18:44:55.329Z,70.77
2022-11-26T18:47:21.940Z,72.40
2022-11-26T18:49:48.624Z,71.27
2022-11-26T18:52:15.407Z,76.57
2022-11-26T18:54:42.311Z,80.03
2022-11-26T18:57:08.743Z,76.07
2022-11-26T18:59:35.472Z,76.50
2022-11-26T19:02:02.159Z,79.20
2022-11-26T19:04:28.756Z,78.73
2022-11-26T19:06:55.265Z,85.80
2022-11-26T19:09:21.978Z,78.47
2022-11-26T19:11:48.819Z,74.10
2022-11-26T19:14:15.840Z,105.03
2022-11-26T19:16:43.300Z,88.30
2022-11-26T19:19:10.149Z,76.50
2022-11-26T19:21:37.980Z,79.83
2022-11-26T19:24:07.239Z,85.37
2022-11-26T19:26:37.426Z,84.70
2022-11-26T19:29:05.231Z,81.50
2022-11-26T19:31:36.171Z,75.37
2022-11-26T19:34:08.906Z,76.30
2022-11-26T19:36:36.569Z,90.60
2022-11-26T19:39:04.375Z,82.73
2022-11-26T19:41:31.035Z,76.60
2022-11-26T19:44:00.483Z,79.47
2022-11-26T19:46:27.308Z,78.47
2022-11-26T19:48:54.195Z,85.10
2022-11-26T19:51:21.879Z,81.97
2022-11-26T19:53:52.508Z,78.83
2022-11-26T19:56:27.555Z,74.50
2022-11-26T19:58:54.700Z,77.47
2022-11-26T20:01:22.027Z,80.37
2022-11-26T20:03:49.294Z,83.13
2022-11-26T20:06:21.337Z,83.70
2022-11-26T20:08:48.332Z,81.33
2022-11-26T20:11:15.875Z,100.80
2022-11-26T20:13:46.542Z,94.50
2022-11-26T20:16:24.471Z,93.03
2022-11-26T20:18:51.359Z,84.90
2022-11-26T20:21:22.595Z,110.17
2022-11-26T20:23:50.980Z,100.83
2022-11-26T20:26:21.963Z,97.67
2022-11-26T20:28:49.460Z,90.17
2022-11-26T20:31:20.691Z,113.03
2022-11-26T20:33:52.810Z,113.67
2022-11-26T20:36:23.280Z,106.87
2022-11-26T20:38:54.363Z,104.20
2022-11-26T20:41:20.943Z,108.10
2022-11-26T20:43:47.859Z,106.57
2022-11-26T20:46:14.648Z,102.37
2022-11-26T20:48:42.895Z,103.00
2022-11-26T20:51:11.844Z,107.20
2022-11-26T20:53:38.881Z,128.80
2022-11-26T20:56:07.497Z,109.07
2022-11-26T20:58:35.609Z,109.20
2022-11-26T21:01:02.387Z,112.70
2022-11-26T21:03:29.410Z,109.70
2022-11-26T21:05:56.039Z,111.57
2022-11-26T21:08:23.000Z,109.00
2022-11-26T21:10:50.135Z,99.40
2022-11-26T21:13:18.241Z,114.53
2022-11-26T21:15:47.403Z,109.47
2022-11-26T21:18:14.184Z,107.80
2022-11-26T21:20:41.932Z,102.40
2022-11-26T21:23:10.087Z,111.50
2022-11-26T21:25:38.403Z,106.40
2022-11-26T21:28:06.099Z,104.27
2022-11-26T21:30:33.985Z,119.50
2022-11-26T21:33:07.508Z,99.73
2022-11-26T21:35:36.012Z,114.50
2022-11-26T21:38:02.674Z,103.30
2022-11-26T21:40:29.415Z,96.20
2022-11-26T21:42:56.219Z,117.37
2022-11-26T21:45:22.801Z,96.17
2022-11-26T21:47:51.166Z,98.83
2022-11-26T21:50:18.981Z,96.50
2022-11-26T21:52:45.649Z,94.73
2022-11-26T21:55:12.396Z,100.20
2022-11-26T21:57:39.288Z,98.47
2022-11-26T22:00:06.756Z,101.37
2022-11-26T22:02:33.715Z,94.33
2022-11-26T22:05:00.571Z,102.80
2022-11-26T22:07:27.522Z,96.40
2022-11-26T22:09:54.280Z,110.07
2022-11-26T22:12:20.930Z,105.27
2022-11-26T22:14:47.459Z,97.93
2022-11-26T22:17:13.997Z,100.27
2022-11-26T22:19:41.034Z,100.57
2022-11-26T22:22:08.155Z,104.33
2022-11-26T22:24:35.710Z,99.20
2022-11-26T22:27:02.359Z,94.80
2022-11-26T22:29:28.849Z,97.40
2022-11-26T22:31:55.427Z,103.53
2022-11-26T22:34:24.629Z,104.47
2022-11-26T22:36:51.310Z,96.87
2022-11-26T22:39:18.758Z,94.30
2022-11-26T22:41:46.710Z,94.27
2022-11-26T22:44:14.068Z,96.70
2022-11-26T22:46:40.565Z,104.17
2022-11-26T22:49:07.305Z,104.20
2022-11-26T22:51:35.620Z,102.40
2022-11-26T22:54:05.271Z,106.40
2022-11-26T22:56:31.879Z,105.20
2022-11-26T22:58:58.635Z,98.83
2022-11-26T23:01:27.825Z,92.60
2022-11-26T23:03:56.169Z,99.63
2022-11-26T23:06:25.307Z,95.40
2022-11-26T23:08:52.457Z,107.63
2022-11-26T23:11:22.034Z,98.77
2022-11-26T23:13:50.090Z,110.27
2022-11-26T23:16:18.290Z,107.13
2022-11-26T23:18:45.248Z,103.90
2022-11-26T23:21:18.021Z,101.00
2022-11-26T23:23:44.956Z,90.70
2022-11-26T23:26:14.893Z,106.40
2022-11-26T23:28:41.582Z,92.67
2022-11-26T23:31:13.092Z,99.83
2022-11-26T23:33:39.845Z,92.53
2022-11-26T23:36:06.652Z,97.50
2022-11-26T23:38:33.380Z,104.67
2022-11-26T23:41:02.620Z,97.17
2022-11-26T23:43:30.552Z,101.43
2022-11-26T23:46:01.508Z,99.53
2022-11-26T23:48:28.778Z,94.83
2022-11-26T23:50:55.288Z,100.50
2022-11-26T23:53:22.140Z,116.93
2022-11-26T23:55:49.193Z,110.10
2022-11-26T23:58:16.683Z,104.80
